sensor_id;sensor_type;location;lat;lon;timestamp;temperature;humidity
81902;DHT22;71369;50.796;3.290;2023-10-19T00:01:57;16.30;90.80
81902;DHT22;71369;50.796;3.290;2023-10-19T00:04:27;16.30;90.70
81902;DHT22;71369;50.796;3.290;2023-10-19T00:06:56;16.20;90.70
81902;DHT22;71369;50.796;3.290;2023-10-19T00:09:22;16.30;90.60
81902;DHT22;71369;50.796;3.290;2023-10-19T00:11:48;16.30;90.60
81902;DHT22;71369;50.796;3.290;2023-10-19T00:14:17;16.20;90.80
81902;DHT22;71369;50.796;3.290;2023-10-19T00:16:44;16.20;90.80
81902;DHT22;71369;50.796;3.290;2023-10-19T00:19:18;16.30;90.60
81902;DHT22;71369;50.796;3.290;2023-10-19T00:21:47;16.20;91.10
81902;DHT22;71369;50.796;3.290;2023-10-19T00:24:18;16.20;90.80
81902;DHT22;71369;50.796;3.290;2023-10-19T00:26:47;16.20;90.70
81902;DHT22;71369;50.796;3.290;2023-10-19T00:29:15;16.20;90.60
81902;DHT22;71369;50.796;3.290;2023-10-19T00:31:59;16.30;90.30
81902;DHT22;71369;50.796;3.290;2023-10-19T00:34:26;16.20;90.10
81902;DHT22;71369;50.796;3.290;2023-10-19T00:36:54;16.20;90.20
81902;DHT22;71369;50.796;3.290;2023-10-19T00:39:22;16.20;90.30
81902;DHT22;71369;50.796;3.290;2023-10-19T00:41:48;16.20;90.00
81902;DHT22;71369;50.796;3.290;2023-10-19T00:44:14;16.20;89.20
81902;DHT22;71369;50.796;3.290;2023-10-19T00:46:49;16.20;89.40
81902;DHT22;71369;50.796;3.290;2023-10-19T00:49:29;16.10;89.30
81902;DHT22;71369;50.796;3.290;2023-10-19T00:51:58;16.20;89.10
81902;DHT22;71369;50.796;3.290;2023-10-19T00:54:39;16.10;89.00
81902;DHT22;71369;50.796;3.290;2023-10-19T00:57:18;16.10;89.10
81902;DHT22;71369;50.796;3.290;2023-10-19T00:59:57;16.10;88.90
81902;DHT22;71369;50.796;3.290;2023-10-19T01:02:40;16.20;89.30
81902;DHT22;71369;50.796;3.290;2023-10-19T01:05:10;16.10;89.10
81902;DHT22;71369;50.796;3.290;2023-10-19T01:07:39;16.10;89.10
81902;DHT22;71369;50.796;3.290;2023-10-19T01:10:06;16.10;89.50
81902;DHT22;71369;50.796;3.290;2023-10-19T01:12:37;16.10;89.60
81902;DHT22;71369;50.796;3.290;2023-10-19T01:15:09;16.10;89.90
81902;DHT22;71369;50.796;3.290;2023-10-19T01:17:38;16.00;89.90
81902;DHT22;71369;50.796;3.290;2023-10-19T01:20:15;16.00;89.60
81902;DHT22;71369;50.796;3.290;2023-10-19T01:23:07;16.00;89.10
81902;DHT22;71369;50.796;3.290;2023-10-19T01:28:15;16.00;88.90
81902;DHT22;71369;50.796;3.290;2023-10-19T01:30:43;16.00;89.40
81902;DHT22;71369;50.796;3.290;2023-10-19T01:33:10;15.90;89.60
81902;DHT22;71369;50.796;3.290;2023-10-19T01:35:41;15.90;89.70
81902;DHT22;71369;50.796;3.290;2023-10-19T01:38:29;15.90;90.00
81902;DHT22;71369;50.796;3.290;2023-10-19T01:41:01;15.80;90.00
81902;DHT22;71369;50.796;3.290;2023-10-19T01:43:31;15.80;90.20
81902;DHT22;71369;50.796;3.290;2023-10-19T01:46:01;15.80;90.10
81902;DHT22;71369;50.796;3.290;2023-10-19T01:48:31;15.80;90.30
81902;DHT22;71369;50.796;3.290;2023-10-19T01:51:05;15.70;90.20
81902;DHT22;71369;50.796;3.290;2023-10-19T01:53:32;15.80;90.30
81902;DHT22;71369;50.796;3.290;2023-10-19T01:55:57;15.90;90.10
81902;DHT22;71369;50.796;3.290;2023-10-19T01:58:24;15.90;90.10
81902;DHT22;71369;50.796;3.290;2023-10-19T02:00:52;15.90;90.00
81902;DHT22;71369;50.796;3.290;2023-10-19T02:03:21;15.90;90.00
81902;DHT22;71369;50.796;3.290;2023-10-19T02:06:00;15.90;90.10
81902;DHT22;71369;50.796;3.290;2023-10-19T02:08:27;15.90;90.30
81902;DHT22;71369;50.796;3.290;2023-10-19T02:10:53;15.90;90.20
81902;DHT22;71369;50.796;3.290;2023-10-19T02:13:22;16.00;90.20
81902;DHT22;71369;50.796;3.290;2023-10-19T02:15:49;15.90;90.20
81902;DHT22;71369;50.796;3.290;2023-10-19T02:18:16;16.00;90.10
81902;DHT22;71369;50.796;3.290;2023-10-19T02:20:43;16.00;90.10
81902;DHT22;71369;50.796;3.290;2023-10-19T02:23:13;16.00;90.10
81902;DHT22;71369;50.796;3.290;2023-10-19T02:25:40;16.00;90.00
81902;DHT22;71369;50.796;3.290;2023-10-19T02:28:06;16.00;90.10
81902;DHT22;71369;50.796;3.290;2023-10-19T02:30:35;16.00;90.10
81902;DHT22;71369;50.796;3.290;2023-10-19T02:33:01;15.90;90.30
81902;DHT22;71369;50.796;3.290;2023-10-19T02:35:29;15.80;90.40
81902;DHT22;71369;50.796;3.290;2023-10-19T02:37:55;15.90;90.40
81902;DHT22;71369;50.796;3.290;2023-10-19T02:40:21;15.90;90.30
81902;DHT22;71369;50.796;3.290;2023-10-19T02:42:49;15.90;90.30
81902;DHT22;71369;50.796;3.290;2023-10-19T02:45:19;15.80;90.70
81902;DHT22;71369;50.796;3.290;2023-10-19T02:47:46;16.00;90.10
81902;DHT22;71369;50.796;3.290;2023-10-19T02:50:12;16.00;89.90
81902;DHT22;71369;50.796;3.290;2023-10-19T02:52:42;16.00;90.10
81902;DHT22;71369;50.796;3.290;2023-10-19T02:55:11;15.90;90.20
81902;DHT22;71369;50.796;3.290;2023-10-19T02:57:37;15.90;90.30
81902;DHT22;71369;50.796;3.290;2023-10-19T03:00:05;15.80;90.50
81902;DHT22;71369;50.796;3.290;2023-10-19T03:02:39;15.80;90.60
81902;DHT22;71369;50.796;3.290;2023-10-19T03:05:05;15.80;90.60
81902;DHT22;71369;50.796;3.290;2023-10-19T03:07:41;15.80;90.70
81902;DHT22;71369;50.796;3.290;2023-10-19T03:10:09;15.80;90.80
81902;DHT22;71369;50.796;3.290;2023-10-19T03:12:55;15.80;90.90
81902;DHT22;71369;50.796;3.290;2023-10-19T03:15:22;15.80;90.80
81902;DHT22;71369;50.796;3.290;2023-10-19T03:17:49;15.90;90.80
81902;DHT22;71369;50.796;3.290;2023-10-19T03:20:15;15.90;90.90
81902;DHT22;71369;50.796;3.290;2023-10-19T03:22:44;15.90;90.90
81902;DHT22;71369;50.796;3.290;2023-10-19T03:25:13;15.90;90.90
81902;DHT22;71369;50.796;3.290;2023-10-19T03:27:57;15.90;90.90
81902;DHT22;71369;50.796;3.290;2023-10-19T03:30:31;15.90;90.90
81902;DHT22;71369;50.796;3.290;2023-10-19T03:32:57;15.90;90.80
81902;DHT22;71369;50.796;3.290;2023-10-19T03:35:25;16.00;90.80
81902;DHT22;71369;50.796;3.290;2023-10-19T03:37:51;15.90;90.80
81902;DHT22;71369;50.796;3.290;2023-10-19T03:40:17;15.90;90.70
81902;DHT22;71369;50.796;3.290;2023-10-19T03:42:52;15.90;90.80
81902;DHT22;71369;50.796;3.290;2023-10-19T03:45:20;15.90;90.90
81902;DHT22;71369;50.796;3.290;2023-10-19T03:47:52;16.00;90.70
81902;DHT22;71369;50.796;3.290;2023-10-19T03:50:21;16.00;90.70
81902;DHT22;71369;50.796;3.290;2023-10-19T03:52:47;15.90;90.80
81902;DHT22;71369;50.796;3.290;2023-10-19T03:55:12;15.90;90.90
81902;DHT22;71369;50.796;3.290;2023-10-19T03:57:43;15.90;90.90
81902;DHT22;71369;50.796;3.290;2023-10-19T04:00:16;15.90;90.90
81902;DHT22;71369;50.796;3.290;2023-10-19T04:02:43;15.80;90.90
81902;DHT22;71369;50.796;3.290;2023-10-19T04:05:09;15.90;90.90
81902;DHT22;71369;50.796;3.290;2023-10-19T04:07:45;15.90;91.00
81902;DHT22;71369;50.796;3.290;2023-10-19T04:10:11;15.80;90.80
81902;DHT22;71369;50.796;3.290;2023-10-19T04:12:56;15.90;91.00
81902;DHT22;71369;50.796;3.290;2023-10-19T04:15:26;15.90;91.10
81902;DHT22;71369;50.796;3.290;2023-10-19T04:17:52;15.90;90.90
81902;DHT22;71369;50.796;3.290;2023-10-19T04:20:24;16.00;90.90
81902;DHT22;71369;50.796;3.290;2023-10-19T04:23:08;15.90;90.80
81902;DHT22;71369;50.796;3.290;2023-10-19T04:25:37;15.90;90.90
81902;DHT22;71369;50.796;3.290;2023-10-19T04:28:03;15.90;90.90
81902;DHT22;71369;50.796;3.290;2023-10-19T04:30:30;15.90;91.00
81902;DHT22;71369;50.796;3.290;2023-10-19T04:32:58;15.90;90.80
81902;DHT22;71369;50.796;3.290;2023-10-19T04:35:27;16.00;90.80
81902;DHT22;71369;50.796;3.290;2023-10-19T04:37:56;15.90;90.80
81902;DHT22;71369;50.796;3.290;2023-10-19T04:40:22;15.90;91.00
81902;DHT22;71369;50.796;3.290;2023-10-19T04:42:52;15.90;91.00
81902;DHT22;71369;50.796;3.290;2023-10-19T04:45:18;15.90;91.00
81902;DHT22;71369;50.796;3.290;2023-10-19T04:47:44;15.90;91.00
81902;DHT22;71369;50.796;3.290;2023-10-19T04:50:12;15.90;91.10
81902;DHT22;71369;50.796;3.290;2023-10-19T04:52:38;15.80;91.00
81902;DHT22;71369;50.796;3.290;2023-10-19T04:55:05;15.90;91.10
81902;DHT22;71369;50.796;3.290;2023-10-19T04:57:31;15.90;91.10
81902;DHT22;71369;50.796;3.290;2023-10-19T04:59:57;15.90;91.10
81902;DHT22;71369;50.796;3.290;2023-10-19T05:02:23;15.90;91.00
81902;DHT22;71369;50.796;3.290;2023-10-19T05:04:49;15.80;91.10
81902;DHT22;71369;50.796;3.290;2023-10-19T05:07:16;15.80;91.30
81902;DHT22;71369;50.796;3.290;2023-10-19T05:09:45;15.90;91.10
81902;DHT22;71369;50.796;3.290;2023-10-19T05:12:11;15.80;91.20
81902;DHT22;71369;50.796;3.290;2023-10-19T05:14:37;15.80;91.30
81902;DHT22;71369;50.796;3.290;2023-10-19T05:17:04;15.70;91.50
81902;DHT22;71369;50.796;3.290;2023-10-19T05:19:36;15.80;91.40
81902;DHT22;71369;50.796;3.290;2023-10-19T05:22:06;15.70;91.50
81902;DHT22;71369;50.796;3.290;2023-10-19T05:24:32;15.70;91.60
81902;DHT22;71369;50.796;3.290;2023-10-19T05:26:58;15.60;91.60
81902;DHT22;71369;50.796;3.290;2023-10-19T05:29:24;15.60;91.70
81902;DHT22;71369;50.796;3.290;2023-10-19T05:31:51;15.50;91.80
81902;DHT22;71369;50.796;3.290;2023-10-19T05:34:21;15.50;92.00
81902;DHT22;71369;50.796;3.290;2023-10-19T05:36:47;15.50;92.10
81902;DHT22;71369;50.796;3.290;2023-10-19T05:39:17;15.50;92.00
81902;DHT22;71369;50.796;3.290;2023-10-19T05:41:43;15.40;92.10
81902;DHT22;71369;50.796;3.290;2023-10-19T05:44:10;15.40;92.20
81902;DHT22;71369;50.796;3.290;2023-10-19T05:46:35;15.40;92.30
81902;DHT22;71369;50.796;3.290;2023-10-19T05:49:02;15.40;92.20
81902;DHT22;71369;50.796;3.290;2023-10-19T05:51:30;15.40;92.20
81902;DHT22;71369;50.796;3.290;2023-10-19T05:53:56;15.40;92.10
81902;DHT22;71369;50.796;3.290;2023-10-19T05:56:28;15.30;92.20
81902;DHT22;71369;50.796;3.290;2023-10-19T05:58:53;15.20;92.40
81902;DHT22;71369;50.796;3.290;2023-10-19T06:01:19;15.10;92.70
81902;DHT22;71369;50.796;3.290;2023-10-19T06:03:45;15.10;92.80
81902;DHT22;71369;50.796;3.290;2023-10-19T06:06:11;15.00;92.90
81902;DHT22;71369;50.796;3.290;2023-10-19T06:08:39;15.00;93.10
81902;DHT22;71369;50.796;3.290;2023-10-19T06:11:05;15.10;93.20
81902;DHT22;71369;50.796;3.290;2023-10-19T06:13:32;15.10;93.10
81902;DHT22;71369;50.796;3.290;2023-10-19T06:15:58;15.10;93.10
81902;DHT22;71369;50.796;3.290;2023-10-19T06:18:23;15.20;93.10
81902;DHT22;71369;50.796;3.290;2023-10-19T06:20:50;15.30;93.00
81902;DHT22;71369;50.796;3.290;2023-10-19T06:23:17;15.20;92.90
81902;DHT22;71369;50.796;3.290;2023-10-19T06:25:43;15.20;92.90
81902;DHT22;71369;50.796;3.290;2023-10-19T06:28:10;15.30;92.90
81902;DHT22;71369;50.796;3.290;2023-10-19T06:30:38;15.30;92.80
81902;DHT22;71369;50.796;3.290;2023-10-19T06:33:06;15.30;92.90
81902;DHT22;71369;50.796;3.290;2023-10-19T06:35:33;15.20;93.00
81902;DHT22;71369;50.796;3.290;2023-10-19T06:38:00;15.20;93.20
81902;DHT22;71369;50.796;3.290;2023-10-19T06:40:26;15.20;93.20
81902;DHT22;71369;50.796;3.290;2023-10-19T06:42:55;15.30;93.10
81902;DHT22;71369;50.796;3.290;2023-10-19T06:45:24;15.40;93.00
81902;DHT22;71369;50.796;3.290;2023-10-19T06:47:52;15.40;92.90
81902;DHT22;71369;50.796;3.290;2023-10-19T06:50:20;15.40;92.80
81902;DHT22;71369;50.796;3.290;2023-10-19T06:52:46;15.40;92.70
81902;DHT22;71369;50.796;3.290;2023-10-19T06:55:14;15.40;92.70
81902;DHT22;71369;50.796;3.290;2023-10-19T06:57:43;15.50;92.70
81902;DHT22;71369;50.796;3.290;2023-10-19T07:00:13;15.50;92.70
81902;DHT22;71369;50.796;3.290;2023-10-19T07:02:42;15.50;92.80
81902;DHT22;71369;50.796;3.290;2023-10-19T07:05:09;15.50;92.80
81902;DHT22;71369;50.796;3.290;2023-10-19T07:07:42;15.50;92.70
81902;DHT22;71369;50.796;3.290;2023-10-19T07:10:09;15.60;92.80
81902;DHT22;71369;50.796;3.290;2023-10-19T07:12:38;15.60;92.60
81902;DHT22;71369;50.796;3.290;2023-10-19T07:15:09;15.70;92.40
81902;DHT22;71369;50.796;3.290;2023-10-19T07:17:42;15.70;92.30
81902;DHT22;71369;50.796;3.290;2023-10-19T07:20:10;15.80;92.30
81902;DHT22;71369;50.796;3.290;2023-10-19T07:23:01;15.80;92.30
81902;DHT22;71369;50.796;3.290;2023-10-19T07:25:48;15.80;92.10
81902;DHT22;71369;50.796;3.290;2023-10-19T07:28:18;15.70;92.10
81902;DHT22;71369;50.796;3.290;2023-10-19T07:30:45;15.70;92.20
81902;DHT22;71369;50.796;3.290;2023-10-19T07:33:17;15.80;92.30
81902;DHT22;71369;50.796;3.290;2023-10-19T07:35:44;15.90;92.00
81902;DHT22;71369;50.796;3.290;2023-10-19T07:38:13;16.00;91.70
81902;DHT22;71369;50.796;3.290;2023-10-19T07:40:39;16.20;91.60
81902;DHT22;71369;50.796;3.290;2023-10-19T07:43:05;16.50;91.00
81902;DHT22;71369;50.796;3.290;2023-10-19T07:45:31;16.80;90.20
81902;DHT22;71369;50.796;3.290;2023-10-19T07:47:58;17.60;87.30
81902;DHT22;71369;50.796;3.290;2023-10-19T07:50:35;18.60;83.40
81902;DHT22;71369;50.796;3.290;2023-10-19T07:53:01;19.30;78.70
81902;DHT22;71369;50.796;3.290;2023-10-19T07:55:27;19.50;77.80
81902;DHT22;71369;50.796;3.290;2023-10-19T07:57:53;19.20;78.30
81902;DHT22;71369;50.796;3.290;2023-10-19T08:00:20;18.70;80.00
81902;DHT22;71369;50.796;3.290;2023-10-19T08:02:47;18.30;81.30
81902;DHT22;71369;50.796;3.290;2023-10-19T08:05:16;18.00;83.10
81902;DHT22;71369;50.796;3.290;2023-10-19T08:07:45;17.80;84.50
81902;DHT22;71369;50.796;3.290;2023-10-19T08:10:13;17.70;85.70
81902;DHT22;71369;50.796;3.290;2023-10-19T08:12:40;17.60;85.30
81902;DHT22;71369;50.796;3.290;2023-10-19T08:15:13;17.70;85.60
81902;DHT22;71369;50.796;3.290;2023-10-19T08:17:45;17.70;85.50
81902;DHT22;71369;50.796;3.290;2023-10-19T08:20:14;18.00;84.00
81902;DHT22;71369;50.796;3.290;2023-10-19T08:22:49;18.20;83.60
81902;DHT22;71369;50.796;3.290;2023-10-19T08:25:15;18.20;83.20
81902;DHT22;71369;50.796;3.290;2023-10-19T08:27:44;18.30;83.30
81902;DHT22;71369;50.796;3.290;2023-10-19T08:30:14;18.40;83.40
81902;DHT22;71369;50.796;3.290;2023-10-19T08:32:41;18.70;82.20
81902;DHT22;71369;50.796;3.290;2023-10-19T08:35:14;18.60;81.30
81902;DHT22;71369;50.796;3.290;2023-10-19T08:37:41;18.40;81.80
81902;DHT22;71369;50.796;3.290;2023-10-19T08:40:09;18.20;83.00
81902;DHT22;71369;50.796;3.290;2023-10-19T08:42:40;18.00;83.80
81902;DHT22;71369;50.796;3.290;2023-10-19T08:45:07;17.90;84.30
81902;DHT22;71369;50.796;3.290;2023-10-19T08:47:36;17.70;85.00
81902;DHT22;71369;50.796;3.290;2023-10-19T08:50:03;17.60;85.70
81902;DHT22;71369;50.796;3.290;2023-10-19T08:52:30;17.50;86.10
81902;DHT22;71369;50.796;3.290;2023-10-19T08:54:57;17.40;86.80
81902;DHT22;71369;50.796;3.290;2023-10-19T08:57:23;17.40;87.10
81902;DHT22;71369;50.796;3.290;2023-10-19T08:59:49;17.50;87.00
81902;DHT22;71369;50.796;3.290;2023-10-19T09:02:15;17.50;86.80
81902;DHT22;71369;50.796;3.290;2023-10-19T09:04:47;17.60;86.90
81902;DHT22;71369;50.796;3.290;2023-10-19T09:07:13;17.80;86.40
81902;DHT22;71369;50.796;3.290;2023-10-19T09:09:41;17.90;85.70
81902;DHT22;71369;50.796;3.290;2023-10-19T09:12:07;18.20;85.00
81902;DHT22;71369;50.796;3.290;2023-10-19T09:14:34;18.30;83.60
81902;DHT22;71369;50.796;3.290;2023-10-19T09:17:09;18.30;84.10
81902;DHT22;71369;50.796;3.290;2023-10-19T09:19:37;18.30;83.30
81902;DHT22;71369;50.796;3.290;2023-10-19T09:22:03;18.40;83.50
81902;DHT22;71369;50.796;3.290;2023-10-19T09:24:51;18.30;83.70
81902;DHT22;71369;50.796;3.290;2023-10-19T09:27:19;18.20;83.90
81902;DHT22;71369;50.796;3.290;2023-10-19T09:29:46;18.10;84.60
81902;DHT22;71369;50.796;3.290;2023-10-19T09:32:12;18.00;85.00
81902;DHT22;71369;50.796;3.290;2023-10-19T09:34:41;17.90;85.20
81902;DHT22;71369;50.796;3.290;2023-10-19T09:37:10;17.80;85.90
81902;DHT22;71369;50.796;3.290;2023-10-19T09:39:37;17.80;85.90
81902;DHT22;71369;50.796;3.290;2023-10-19T09:42:06;17.80;86.10
81902;DHT22;71369;50.796;3.290;2023-10-19T09:44:43;17.70;87.10
81902;DHT22;71369;50.796;3.290;2023-10-19T09:47:18;17.60;88.30
81902;DHT22;71369;50.796;3.290;2023-10-19T09:49:45;17.40;89.40
81902;DHT22;71369;50.796;3.290;2023-10-19T09:52:11;17.30;90.20
81902;DHT22;71369;50.796;3.290;2023-10-19T09:57:17;17.20;90.40
81902;DHT22;71369;50.796;3.290;2023-10-19T09:59:46;17.20;90.50
81902;DHT22;71369;50.796;3.290;2023-10-19T10:02:16;17.20;90.50
81902;DHT22;71369;50.796;3.290;2023-10-19T10:04:43;17.10;90.80
81902;DHT22;71369;50.796;3.290;2023-10-19T10:07:13;17.10;90.80
81902;DHT22;71369;50.796;3.290;2023-10-19T10:09:40;17.10;91.00
81902;DHT22;71369;50.796;3.290;2023-10-19T10:12:22;17.10;90.90
81902;DHT22;71369;50.796;3.290;2023-10-19T10:17:27;17.10;91.00
81902;DHT22;71369;50.796;3.290;2023-10-19T10:22:45;17.30;90.90
81902;DHT22;71369;50.796;3.290;2023-10-19T10:25:30;17.50;90.90
81902;DHT22;71369;50.796;3.290;2023-10-19T10:27:58;17.90;90.10
81902;DHT22;71369;50.796;3.290;2023-10-19T10:30:24;18.60;88.40
81902;DHT22;71369;50.796;3.290;2023-10-19T10:32:51;20.40;82.50
81902;DHT22;71369;50.796;3.290;2023-10-19T10:38:06;23.60;68.30
81902;DHT22;71369;50.796;3.290;2023-10-19T10:40:52;24.00;64.70
81902;DHT22;71369;50.796;3.290;2023-10-19T10:43:19;23.50;64.00
81902;DHT22;71369;50.796;3.290;2023-10-19T10:45:44;23.70;65.30
81902;DHT22;71369;50.796;3.290;2023-10-19T10:48:18;24.10;63.60
81902;DHT22;71369;50.796;3.290;2023-10-19T10:50:44;23.50;64.90
81902;DHT22;71369;50.796;3.290;2023-10-19T10:53:13;22.90;66.40
81902;DHT22;71369;50.796;3.290;2023-10-19T10:55:40;22.60;67.10
81902;DHT22;71369;50.796;3.290;2023-10-19T10:58:06;21.90;68.60
81902;DHT22;71369;50.796;3.290;2023-10-19T11:00:33;21.30;71.20
81902;DHT22;71369;50.796;3.290;2023-10-19T11:03:07;20.70;73.80
81902;DHT22;71369;50.796;3.290;2023-10-19T11:05:36;20.30;74.90
81902;DHT22;71369;50.796;3.290;2023-10-19T11:08:14;20.00;76.60
81902;DHT22;71369;50.796;3.290;2023-10-19T11:10:42;19.70;77.10
81902;DHT22;71369;50.796;3.290;2023-10-19T11:13:12;19.70;79.30
81902;DHT22;71369;50.796;3.290;2023-10-19T11:15:48;19.60;79.20
81902;DHT22;71369;50.796;3.290;2023-10-19T11:18:34;19.80;79.60
81902;DHT22;71369;50.796;3.290;2023-10-19T11:21:09;19.80;78.70
81902;DHT22;71369;50.796;3.290;2023-10-19T11:23:45;19.80;79.30
81902;DHT22;71369;50.796;3.290;2023-10-19T11:26:14;19.70;78.70
81902;DHT22;71369;50.796;3.290;2023-10-19T11:28:40;19.80;79.00
81902;DHT22;71369;50.796;3.290;2023-10-19T11:31:23;19.80;78.40
81902;DHT22;71369;50.796;3.290;2023-10-19T11:33:50;19.80;78.40
81902;DHT22;71369;50.796;3.290;2023-10-19T11:36:18;19.80;78.80
81902;DHT22;71369;50.796;3.290;2023-10-19T11:38:45;19.80;79.70
81902;DHT22;71369;50.796;3.290;2023-10-19T11:41:12;19.80;78.70
81902;DHT22;71369;50.796;3.290;2023-10-19T11:43:40;19.80;78.50
81902;DHT22;71369;50.796;3.290;2023-10-19T11:46:06;20.00;78.30
81902;DHT22;71369;50.796;3.290;2023-10-19T11:48:33;20.50;78.40
81902;DHT22;71369;50.796;3.290;2023-10-19T11:51:02;20.70;74.90
81902;DHT22;71369;50.796;3.290;2023-10-19T11:53:33;20.70;74.30
81902;DHT22;71369;50.796;3.290;2023-10-19T11:56:04;20.40;74.80
81902;DHT22;71369;50.796;3.290;2023-10-19T11:58:34;20.20;76.70
81902;DHT22;71369;50.796;3.290;2023-10-19T12:01:01;19.80;77.40
81902;DHT22;71369;50.796;3.290;2023-10-19T12:03:31;19.60;78.10
81902;DHT22;71369;50.796;3.290;2023-10-19T12:05:57;19.40;78.20
81902;DHT22;71369;50.796;3.290;2023-10-19T12:08:23;19.40;79.40
81902;DHT22;71369;50.796;3.290;2023-10-19T12:10:50;19.30;79.80
81902;DHT22;71369;50.796;3.290;2023-10-19T12:13:16;19.30;80.00
81902;DHT22;71369;50.796;3.290;2023-10-19T12:15:42;19.20;79.80
81902;DHT22;71369;50.796;3.290;2023-10-19T12:18:19;19.30;80.00
81902;DHT22;71369;50.796;3.290;2023-10-19T12:21:03;19.40;80.00
81902;DHT22;71369;50.796;3.290;2023-10-19T12:23:33;19.30;79.80
81902;DHT22;71369;50.796;3.290;2023-10-19T12:25:59;19.20;80.30
81902;DHT22;71369;50.796;3.290;2023-10-19T12:28:28;19.30;80.20
81902;DHT22;71369;50.796;3.290;2023-10-19T12:30:54;19.30;80.20
81902;DHT22;71369;50.796;3.290;2023-10-19T12:33:21;19.50;80.50
81902;DHT22;71369;50.796;3.290;2023-10-19T12:35:47;20.00;77.50
81902;DHT22;71369;50.796;3.290;2023-10-19T12:38:39;20.40;76.00
81902;DHT22;71369;50.796;3.290;2023-10-19T12:41:05;21.10;73.80
81902;DHT22;71369;50.796;3.290;2023-10-19T12:43:32;22.00;71.40
81902;DHT22;71369;50.796;3.290;2023-10-19T12:46:00;22.50;67.80
81902;DHT22;71369;50.796;3.290;2023-10-19T12:48:27;23.10;65.80
81902;DHT22;71369;50.796;3.290;2023-10-19T12:50:58;22.90;64.80
81902;DHT22;71369;50.796;3.290;2023-10-19T12:53:24;22.60;67.20
81902;DHT22;71369;50.796;3.290;2023-10-19T12:55:51;22.30;67.50
81902;DHT22;71369;50.796;3.290;2023-10-19T12:58:18;21.70;68.70
81902;DHT22;71369;50.796;3.290;2023-10-19T13:00:45;21.40;70.80
81902;DHT22;71369;50.796;3.290;2023-10-19T13:03:13;21.20;72.70
81902;DHT22;71369;50.796;3.290;2023-10-19T13:05:40;21.00;73.70
81902;DHT22;71369;50.796;3.290;2023-10-19T13:08:07;20.90;73.20
81902;DHT22;71369;50.796;3.290;2023-10-19T13:10:34;21.10;72.50
81902;DHT22;71369;50.796;3.290;2023-10-19T13:13:04;22.00;70.70
81902;DHT22;71369;50.796;3.290;2023-10-19T13:15:31;22.30;67.80
81902;DHT22;71369;50.796;3.290;2023-10-19T13:17:58;22.60;67.10
81902;DHT22;71369;50.796;3.290;2023-10-19T13:20:28;22.20;67.80
81902;DHT22;71369;50.796;3.290;2023-10-19T13:23:00;22.20;69.20
81902;DHT22;71369;50.796;3.290;2023-10-19T13:25:26;22.10;68.10
81902;DHT22;71369;50.796;3.290;2023-10-19T13:28:13;21.70;70.40
81902;DHT22;71369;50.796;3.290;2023-10-19T13:30:46;22.00;70.00
81902;DHT22;71369;50.796;3.290;2023-10-19T13:33:13;22.60;67.40
81902;DHT22;71369;50.796;3.290;2023-10-19T13:35:43;23.20;65.80
81902;DHT22;71369;50.796;3.290;2023-10-19T13:38:10;23.70;64.60
81902;DHT22;71369;50.796;3.290;2023-10-19T13:40:37;24.10;63.40
81902;DHT22;71369;50.796;3.290;2023-10-19T13:43:04;24.40;61.70
81902;DHT22;71369;50.796;3.290;2023-10-19T13:45:33;25.10;59.50
81902;DHT22;71369;50.796;3.290;2023-10-19T13:48:02;25.10;59.20
81902;DHT22;71369;50.796;3.290;2023-10-19T13:50:29;25.00;59.40
81902;DHT22;71369;50.796;3.290;2023-10-19T13:52:56;24.10;60.80
81902;DHT22;71369;50.796;3.290;2023-10-19T13:55:23;23.40;63.60
81902;DHT22;71369;50.796;3.290;2023-10-19T13:57:49;22.70;65.60
81902;DHT22;71369;50.796;3.290;2023-10-19T14:00:16;22.20;68.00
81902;DHT22;71369;50.796;3.290;2023-10-19T14:02:52;21.70;70.60
81902;DHT22;71369;50.796;3.290;2023-10-19T14:05:18;21.40;71.40
81902;DHT22;71369;50.796;3.290;2023-10-19T14:07:45;21.30;72.10
81902;DHT22;71369;50.796;3.290;2023-10-19T14:10:13;21.20;72.80
81902;DHT22;71369;50.796;3.290;2023-10-19T14:12:40;21.10;72.90
81902;DHT22;71369;50.796;3.290;2023-10-19T14:15:13;20.90;72.90
81902;DHT22;71369;50.796;3.290;2023-10-19T14:17:40;20.70;73.40
81902;DHT22;71369;50.796;3.290;2023-10-19T14:20:07;20.70;75.10
81902;DHT22;71369;50.796;3.290;2023-10-19T14:22:49;20.50;74.50
81902;DHT22;71369;50.796;3.290;2023-10-19T14:25:16;20.50;75.20
81902;DHT22;71369;50.796;3.290;2023-10-19T14:27:43;20.40;75.50
81902;DHT22;71369;50.796;3.290;2023-10-19T14:30:17;20.50;75.30
81902;DHT22;71369;50.796;3.290;2023-10-19T14:32:44;20.40;76.40
81902;DHT22;71369;50.796;3.290;2023-10-19T14:35:13;20.40;75.80
81902;DHT22;71369;50.796;3.290;2023-10-19T14:37:44;20.40;76.30
81902;DHT22;71369;50.796;3.290;2023-10-19T14:40:13;20.40;76.00
81902;DHT22;71369;50.796;3.290;2023-10-19T14:42:41;20.30;76.20
81902;DHT22;71369;50.796;3.290;2023-10-19T14:45:16;20.20;76.80
81902;DHT22;71369;50.796;3.290;2023-10-19T14:47:49;20.10;77.10
81902;DHT22;71369;50.796;3.290;2023-10-19T14:50:17;20.00;78.60
81902;DHT22;71369;50.796;3.290;2023-10-19T14:52:46;19.90;77.90
81902;DHT22;71369;50.796;3.290;2023-10-19T14:55:12;19.90;78.00
81902;DHT22;71369;50.796;3.290;2023-10-19T14:57:41;20.00;78.30
81902;DHT22;71369;50.796;3.290;2023-10-19T15:00:08;20.00;78.20
81902;DHT22;71369;50.796;3.290;2023-10-19T15:02:48;20.20;78.10
81902;DHT22;71369;50.796;3.290;2023-10-19T15:05:15;20.20;77.60
81902;DHT22;71369;50.796;3.290;2023-10-19T15:07:45;20.30;77.10
81902;DHT22;71369;50.796;3.290;2023-10-19T15:10:12;20.10;77.30
81902;DHT22;71369;50.796;3.290;2023-10-19T15:12:39;19.90;77.90
81902;DHT22;71369;50.796;3.290;2023-10-19T15:15:08;19.80;77.60
81902;DHT22;71369;50.796;3.290;2023-10-19T15:17:37;19.70;77.90
81902;DHT22;71369;50.796;3.290;2023-10-19T15:20:05;19.70;78.50
81902;DHT22;71369;50.796;3.290;2023-10-19T15:22:31;19.70;79.00
81902;DHT22;71369;50.796;3.290;2023-10-19T15:25:00;19.80;79.50
81902;DHT22;71369;50.796;3.290;2023-10-19T15:27:26;19.80;78.70
81902;DHT22;71369;50.796;3.290;2023-10-19T15:29:55;19.80;79.20
81902;DHT22;71369;50.796;3.290;2023-10-19T15:32:21;19.70;79.00
81902;DHT22;71369;50.796;3.290;2023-10-19T15:34:47;19.60;79.50
81902;DHT22;71369;50.796;3.290;2023-10-19T15:37:13;19.50;79.90
81902;DHT22;71369;50.796;3.290;2023-10-19T15:39:38;19.50;79.60
81902;DHT22;71369;50.796;3.290;2023-10-19T15:42:04;19.40;80.00
81902;DHT22;71369;50.796;3.290;2023-10-19T15:44:34;19.40;80.10
81902;DHT22;71369;50.796;3.290;2023-10-19T15:47:00;19.50;80.10
81902;DHT22;71369;50.796;3.290;2023-10-19T15:49:26;19.50;80.30
81902;DHT22;71369;50.796;3.290;2023-10-19T15:51:52;19.50;79.60
81902;DHT22;71369;50.796;3.290;2023-10-19T15:54:18;19.40;80.30
81902;DHT22;71369;50.796;3.290;2023-10-19T15:56:43;19.50;80.70